createdAt,value
2023-02-24T00:02:05.976Z,99145.72
2023-02-24T00:07:10.518Z,99136.56
2023-02-24T00:12:14.502Z,99138.25
2023-02-24T00:17:16.361Z,99137.25
2023-02-24T00:22:18.013Z,99134.09
2023-02-24T00:27:19.625Z,99131.22
2023-02-24T00:32:21.611Z,99132.78
2023-02-24T00:37:24.239Z,99135.81
2023-02-24T00:42:25.953Z,99140.84
2023-02-24T00:47:28.089Z,99136.16
2023-02-24T00:52:29.706Z,99130.47
2023-02-24T00:57:33.292Z,99127.63
2023-02-24T01:02:35.430Z,99120.47
2023-02-24T01:07:37.138Z,99119.28
2023-02-24T01:12:49.593Z,99108.28
2023-02-24T01:17:51.411Z,99119.81
2023-02-24T01:22:53.481Z,99110.66
2023-02-24T01:27:55.196Z,99108.00
2023-02-24T01:32:57.566Z,99103.31
2023-02-24T01:37:59.282Z,99104.84
2023-02-24T01:43:08.720Z,99087.63
2023-02-24T01:48:12.501Z,99079.97
2023-02-24T01:53:15.080Z,99078.59
2023-02-24T01:58:23.956Z,99068.59
2023-02-24T02:03:33.366Z,99066.75
2023-02-24T02:08:37.959Z,99067.44
2023-02-24T02:13:45.047Z,99057.38
2023-02-24T02:19:05.064Z,99051.84
2023-02-24T02:24:22.151Z,99048.34
2023-02-24T02:29:30.595Z,99045.88
2023-02-24T02:34:34.900Z,99039.16
2023-02-24T02:39:58.879Z,99037.63
2023-02-24T02:45:13.434Z,99033.97
2023-02-24T02:50:27.785Z,99035.94
2023-02-24T02:55:46.591Z,99028.78
2023-02-24T03:01:01.775Z,99027.94
2023-02-24T03:06:13.584Z,99019.97
2023-02-24T03:11:18.717Z,99018.50
2023-02-24T03:16:23.238Z,99028.03
2023-02-24T03:21:36.631Z,99018.31
2023-02-24T03:26:45.144Z,99017.16
2023-02-24T03:31:54.300Z,99013.16
2023-02-24T03:36:57.338Z,99018.19
2023-02-24T03:42:15.571Z,99027.41
2023-02-24T03:47:20.358Z,99019.38
2023-02-24T03:52:33.303Z,99025.56
2023-02-24T03:58:12.819Z,99025.53
2023-02-24T04:03:58.105Z,99034.03
2023-02-24T04:09:18.181Z,99018.69
2023-02-24T04:14:33.180Z,99007.69
2023-02-24T04:19:40.629Z,99005.03
2023-02-24T04:24:46.323Z,98994.31
2023-02-24T04:29:53.104Z,98989.66
2023-02-24T04:35:06.743Z,98983.81
2023-02-24T04:40:12.405Z,98976.81
2023-02-24T04:45:18.666Z,98976.94
2023-02-24T04:50:23.106Z,98966.78
2023-02-24T04:55:29.528Z,98959.94
2023-02-24T05:00:35.684Z,98962.94
2023-02-24T05:05:37.655Z,98948.44
2023-02-24T05:10:43.939Z,98944.59
2023-02-24T05:15:48.042Z,98936.25
2023-02-24T05:21:13.925Z,98938.25
2023-02-24T05:26:18.391Z,98932.72
2023-02-24T05:31:28.537Z,98933.75
2023-02-24T05:36:36.592Z,98933.91
2023-02-24T05:41:42.134Z,98932.19
2023-02-24T05:46:46.116Z,98937.09
2023-02-24T05:51:56.975Z,98937.25
2023-02-24T05:57:04.106Z,98939.84
2023-02-24T06:02:09.632Z,98930.31
2023-02-24T06:07:13.882Z,98934.81
2023-02-24T06:12:16.758Z,98931.00
2023-02-24T06:17:20.033Z,98932.97
2023-02-24T06:22:24.225Z,98941.50
2023-02-24T06:27:25.927Z,98946.16
2023-02-24T06:32:28.211Z,98958.16
2023-02-24T06:37:30.081Z,98959.72
2023-02-24T06:42:31.728Z,98952.91
2023-02-24T06:47:33.482Z,98951.19
2023-02-24T06:52:36.422Z,98953.69
2023-02-24T06:57:38.026Z,98945.44
2023-02-24T07:02:40.083Z,98953.44
2023-02-24T07:07:45.978Z,98948.31
2023-02-24T07:12:47.640Z,98957.19
2023-02-24T07:17:50.800Z,98951.47
2023-02-24T07:22:52.560Z,98950.13
2023-02-24T07:27:54.170Z,98947.53
2023-02-24T07:32:57.147Z,98943.25
2023-02-24T07:38:02.138Z,98939.19
2023-02-24T07:43:06.449Z,98938.78
2023-02-24T07:48:08.076Z,98936.66
2023-02-24T07:53:10.111Z,98922.31
2023-02-24T07:58:11.857Z,98933.16
2023-02-24T08:03:13.692Z,98910.84
2023-02-24T08:08:21.003Z,98913.00
2023-02-24T08:13:22.777Z,98906.56
2023-02-24T08:18:24.471Z,98898.66
2023-02-24T08:23:26.088Z,98887.59
2023-02-24T08:28:27.689Z,98879.41
2023-02-24T08:33:30.258Z,98869.66
2023-02-24T08:38:42.068Z,98868.44
2023-02-24T08:43:46.478Z,98868.16
2023-02-24T08:48:57.165Z,98865.78
2023-02-24T08:54:15.644Z,98862.78
2023-02-24T08:59:37.376Z,98856.41
2023-02-24T09:04:39.038Z,98840.91
2023-02-24T09:09:42.501Z,98827.41
2023-02-24T09:14:44.238Z,98822.75
2023-02-24T09:19:52.495Z,98823.03
2023-02-24T09:25:14.109Z,98812.84
2023-02-24T09:30:35.856Z,98805.94
2023-02-24T09:35:41.879Z,98789.75
2023-02-24T09:40:49.535Z,98760.41
2023-02-24T09:45:58.489Z,98750.75
2023-02-24T09:51:05.521Z,98732.69
2023-02-24T09:56:22.163Z,98726.72
2023-02-24T10:01:33.492Z,98724.44
2023-02-24T10:06:45.063Z,98734.41
2023-02-24T10:11:53.675Z,98725.94
2023-02-24T10:17:15.348Z,98708.50
2023-02-24T10:22:56.706Z,98690.97
2023-02-24T10:28:20.124Z,98687.44
2023-02-24T10:33:37.858Z,98667.47
2023-02-24T10:38:45.690Z,98643.47
2023-02-24T10:43:56.472Z,98634.00
2023-02-24T10:49:02.235Z,98628.97
2023-02-24T10:54:30.877Z,98618.03
2023-02-24T10:59:58.522Z,98613.69
2023-02-24T11:05:27.147Z,98600.03
2023-02-24T11:10:42.896Z,98590.78
2023-02-24T11:16:06.577Z,98573.91
2023-02-24T11:21:14.471Z,98554.97
2023-02-24T11:26:26.624Z,98547.34
2023-02-24T11:31:46.963Z,98534.41
2023-02-24T11:37:16.085Z,98519.88
2023-02-24T11:42:25.965Z,98506.25
2023-02-24T11:47:36.903Z,98500.81
2023-02-24T11:52:43.563Z,98482.75
2023-02-24T11:57:51.100Z,98479.47
2023-02-24T12:03:13.615Z,98475.25
2023-02-24T12:08:21.440Z,98457.97
2023-02-24T12:13:41.631Z,98448.69
2023-02-24T12:18:55.092Z,98437.88
2023-02-24T12:23:58.559Z,98433.34
2023-02-24T12:29:18.750Z,98418.44
2023-02-24T12:34:48.981Z,98411.44
2023-02-24T12:40:25.018Z,98406.19
2023-02-24T12:45:31.729Z,98401.41
2023-02-24T12:50:57.693Z,98396.63
2023-02-24T12:56:20.940Z,98384.19
2023-02-24T13:01:30.092Z,98361.97
2023-02-24T13:06:53.177Z,98351.28
2023-02-24T13:12:16.039Z,98345.75
2023-02-24T13:17:21.643Z,98339.34
2023-02-24T13:22:23.255Z,98338.63
2023-02-24T13:27:28.906Z,98329.69
2023-02-24T13:32:36.471Z,98319.50
2023-02-24T13:37:40.671Z,98308.53
2023-02-24T13:43:04.880Z,98307.88
2023-02-24T13:48:25.019Z,98290.47
2023-02-24T13:53:35.052Z,98282.84
2023-02-24T13:58:54.896Z,98273.47
2023-02-24T14:04:17.326Z,98270.22
2023-02-24T14:09:27.155Z,98268.19
2023-02-24T14:14:30.422Z,98254.69
2023-02-24T14:19:32.053Z,98260.44
2023-02-24T14:24:33.670Z,98252.41
2023-02-24T14:29:43.942Z,98262.13
2023-02-24T14:34:48.041Z,98253.19
2023-02-24T14:39:54.909Z,98257.06
2023-02-24T14:44:59.119Z,98236.53
2023-02-24T14:50:02.900Z,98233.03
2023-02-24T14:55:16.622Z,98225.56
2023-02-24T15:00:24.264Z,98222.91
2023-02-24T15:05:26.134Z,98214.41
2023-02-24T15:10:30.852Z,98202.97
2023-02-24T15:15:38.598Z,98195.34
2023-02-24T15:20:41.085Z,98179.84
2023-02-24T15:25:46.181Z,98176.91
2023-02-24T15:31:21.519Z,98173.41
2023-02-24T15:36:26.833Z,98168.06
2023-02-24T15:41:40.877Z,98164.75
2023-02-24T15:46:42.533Z,98156.25
2023-02-24T15:51:46.367Z,98159.16
2023-02-24T15:56:48.916Z,98143.84
2023-02-24T16:01:52.219Z,98152.25
2023-02-24T16:06:56.558Z,98153.22
2023-02-24T16:11:59.996Z,98144.41
2023-02-24T16:17:06.654Z,98145.72
2023-02-24T16:22:10.388Z,98141.75
2023-02-24T16:27:21.093Z,98132.59
2023-02-24T16:32:25.769Z,98133.28
2023-02-24T16:37:29.463Z,98127.25
2023-02-24T16:42:31.117Z,98132.97
2023-02-24T16:47:34.174Z,98130.38
2023-02-24T16:52:35.794Z,98135.69
2023-02-24T16:57:37.448Z,98132.75
2023-02-24T17:02:40.667Z,98123.09
2023-02-24T17:07:42.277Z,98126.75
2023-02-24T17:12:44.181Z,98120.06
2023-02-24T17:17:46.120Z,98116.19
2023-02-24T17:22:48.406Z,98123.38
2023-02-24T17:27:50.569Z,98113.63
2023-02-24T17:32:52.408Z,98104.66
2023-02-24T17:37:54.751Z,98110.47
2023-02-24T17:42:56.495Z,98106.59
2023-02-24T17:47:58.105Z,98099.50
2023-02-24T17:52:59.717Z,98087.59
2023-02-24T17:58:01.337Z,98087.09
2023-02-24T18:03:03.614Z,98073.59
2023-02-24T18:08:05.410Z,98075.25
2023-02-24T18:13:07.026Z,98069.63
2023-02-24T18:18:09.463Z,98078.66
2023-02-24T18:23:12.366Z,98064.84
2023-02-24T18:28:14.009Z,98071.03
2023-02-24T18:33:15.739Z,98060.91
2023-02-24T18:38:17.882Z,98048.59
2023-02-24T18:43:19.521Z,98055.94
2023-02-24T18:48:21.247Z,98049.00
2023-02-24T18:53:23.881Z,98051.66
2023-02-24T18:58:25.557Z,98045.22
2023-02-24T19:03:27.253Z,98037.75
2023-02-24T19:08:28.864Z,98037.13
2023-02-24T19:13:30.808Z,98030.47
2023-02-24T19:18:32.454Z,98028.81
2023-02-24T19:23:34.984Z,98022.34
2023-02-24T19:28:36.596Z,98016.38
2023-02-24T19:33:38.195Z,98018.41
2023-02-24T19:38:41.909Z,98006.78
2023-02-24T19:43:43.771Z,97997.66
2023-02-24T19:48:46.082Z,97998.34
2023-02-24T19:53:48.295Z,97990.06
2023-02-24T19:58:53.755Z,97989.72
2023-02-24T20:03:57.688Z,97990.72
2023-02-24T20:09:00.288Z,97988.84
2023-02-24T20:14:01.967Z,97983.22
2023-02-24T20:19:06.068Z,97981.69
2023-02-24T20:24:13.175Z,97980.69
2023-02-24T20:29:16.619Z,97972.72
2023-02-24T20:34:18.283Z,97968.38
2023-02-24T20:39:24.798Z,97966.19
2023-02-24T20:44:27.105Z,97957.44
2023-02-24T20:49:28.800Z,97953.38
2023-02-24T20:54:30.418Z,97944.72
2023-02-24T20:59:32.085Z,97945.06
2023-02-24T21:04:33.744Z,97940.19
2023-02-24T21:09:37.283Z,97937.53
2023-02-24T21:14:39.044Z,97926.53
2023-02-24T21:19:40.772Z,97923.72
2023-02-24T21:24:42.925Z,97914.44
2023-02-24T21:29:45.420Z,97890.16
2023-02-24T21:34:47.114Z,97890.81
2023-02-24T21:39:49.229Z,97893.09
2023-02-24T21:44:51.211Z,97894.03
2023-02-24T21:49:52.854Z,97882.22
2023-02-24T21:54:54.490Z,97885.63
2023-02-24T21:59:56.917Z,97884.47
2023-02-24T22:04:58.520Z,97882.25
2023-02-24T22:10:00.165Z,97891.78
2023-02-24T22:15:01.787Z,97880.44
2023-02-24T22:20:05.321Z,97860.53
2023-02-24T22:25:08.633Z,97844.59
2023-02-24T22:30:11.157Z,97862.88
2023-02-24T22:35:12.760Z,97869.03
2023-02-24T22:40:14.391Z,97867.19
2023-02-24T22:45:16.078Z,97855.31
2023-02-24T22:50:17.817Z,97849.91
2023-02-24T22:55:20.507Z,97844.91
2023-02-24T23:00:23.191Z,97838.59
2023-02-24T23:05:24.894Z,97840.47
2023-02-24T23:10:26.520Z,97851.09
2023-02-24T23:15:28.487Z,97846.50
2023-02-24T23:20:30.093Z,97844.84
2023-02-24T23:25:31.695Z,97850.81
2023-02-24T23:30:33.436Z,97843.97
2023-02-24T23:35:35.111Z,97844.78
2023-02-24T23:40:49.504Z,97854.13
2023-02-24T23:45:51.942Z,97856.88
2023-02-24T23:50:57.294Z,97854.66
2023-02-24T23:55:58.937Z,97862.00
